International Virtual Aviation Organisation

Russian Federation and Kazakhstan MCD

 

Карточка аэропорта UHSS

Внимание!
Информация на этой странице в стадии наполнения.
Если вы не увидели какой-то информации, или заметили неточность - пожалуйста сообщите нам!
Спасибо!
Команда RU-STAFF
Название аэропортаХомутово
Название аэропорта (англ.)Khomutovo
Превышение59 ft. (18 m.)
Координаты46°53.316', 142°43.020000000001'
Высота перехода1600
Эшелон переходаFL080
Коды ответчика6601-6627
Зона ОрВДХабаровск РПИ (UHHH)
Данные METARUHSS 260530Z 11005MPS 2500 -SHSN BKN007 BKN021CB M00/M01 Q0998 R19/290055 NOSIG RMK MT OBSC QFE747/0996
Проноз погоды (TAF)UHSS 260500Z 2606/2712 09003MPS 1400 SHSN BR BKN004 BKN030CB OVC100 TEMPO 2606/2612 0700 SHSN FZFG BKN002 OVC030CB BECMG 2612/2615 36006G11MPS BECMG 2618/2621 9999 NSW BKN030CB TEMPO 2621/2712 1400 SHSN
NOTAMshow/hide NOTAM
AWOS   TABLE

Информация о ВПП

ВПП Длина ВПП (м.) Покрытие Курс ВПП Частота ILS
013401Железобетон12109.5
193401Железобетон192111.7

Диспетчерские позиции

Позывной Наименование органа УВД Частота
UHSS_TWRЮжно-Сахалинск−Старт122.0
UHSS_R_APPЮжно-Сахалинск−Круг120.6



Спутниковое изображение